createdAt,value
2018-11-29T00:02:09.936Z,14.83
2018-11-29T00:04:38.049Z,15.10
2018-11-29T00:07:06.177Z,14.43
2018-11-29T00:09:38.389Z,15.23
2018-11-29T00:12:07.281Z,13.73
2018-11-29T00:14:36.334Z,14.30
2018-11-29T00:17:04.444Z,14.50
2018-11-29T00:19:32.551Z,14.47
2018-11-29T00:22:00.663Z,14.57
2018-11-29T00:24:28.771Z,15.37
2018-11-29T00:26:56.885Z,15.23
2018-11-29T00:29:24.988Z,13.30
2018-11-29T00:31:53.159Z,13.53
2018-11-29T00:34:21.288Z,15.00
2018-11-29T00:36:49.421Z,13.03
2018-11-29T00:39:17.540Z,13.73
2018-11-29T00:41:45.656Z,13.97
2018-11-29T00:44:13.770Z,14.07
2018-11-29T00:46:41.864Z,14.57
2018-11-29T00:49:09.968Z,14.40
2018-11-29T00:51:38.069Z,13.20
2018-11-29T00:54:06.184Z,15.43
2018-11-29T00:56:34.291Z,13.90
2018-11-29T00:59:02.428Z,14.53
2018-11-29T01:01:30.541Z,14.97
2018-11-29T01:03:58.677Z,15.53
2018-11-29T01:06:26.780Z,15.50
2018-11-29T01:08:54.891Z,15.07
2018-11-29T01:11:22.996Z,15.43
2018-11-29T01:13:51.108Z,14.60
2018-11-29T01:16:19.204Z,14.67
2018-11-29T01:18:47.324Z,15.10
2018-11-29T01:21:15.432Z,15.97
2018-11-29T01:23:43.536Z,15.60
2018-11-29T01:26:11.640Z,14.53
2018-11-29T01:28:39.760Z,15.83
2018-11-29T01:31:07.872Z,16.17
2018-11-29T01:33:35.984Z,15.63
2018-11-29T01:36:04.109Z,16.43
2018-11-29T01:38:32.220Z,16.37
2018-11-29T01:41:00.357Z,14.40
2018-11-29T01:43:28.481Z,16.00
2018-11-29T01:45:56.585Z,16.07
2018-11-29T01:48:24.696Z,15.30
2018-11-29T01:50:52.797Z,16.43
2018-11-29T01:53:20.916Z,16.40
2018-11-29T01:55:49.020Z,15.43
2018-11-29T01:58:17.133Z,15.93
2018-11-29T02:00:45.236Z,15.87
2018-11-29T02:03:13.364Z,16.93
2018-11-29T02:05:41.484Z,15.93
2018-11-29T02:08:09.592Z,16.40
2018-11-29T02:10:43.057Z,16.37
2018-11-29T02:13:11.168Z,16.10
2018-11-29T02:15:39.280Z,16.77
2018-11-29T02:18:07.405Z,16.23
2018-11-29T02:20:35.508Z,16.00
2018-11-29T02:23:03.616Z,15.97
2018-11-29T02:25:31.721Z,15.80
2018-11-29T02:27:59.837Z,17.07
2018-11-29T02:30:27.944Z,16.40
2018-11-29T02:32:56.064Z,17.50
2018-11-29T02:35:24.167Z,16.17
2018-11-29T02:37:52.301Z,16.07
2018-11-29T02:40:20.442Z,17.30
2018-11-29T02:42:49.403Z,15.70
2018-11-29T02:45:19.633Z,16.80
2018-11-29T02:47:47.739Z,15.93
2018-11-29T02:50:15.888Z,16.90
2018-11-29T02:52:43.996Z,17.20
2018-11-29T02:55:12.532Z,16.67
2018-11-29T02:57:40.955Z,18.87
2018-11-29T04:41:13.531Z,17.87
2018-11-29T04:43:41.684Z,20.00
2018-11-29T04:47:15.465Z,20.40
2018-11-29T04:49:43.742Z,21.20
2018-11-29T04:52:11.957Z,23.07
2018-11-29T04:54:41.176Z,22.63
2018-11-29T04:57:09.291Z,21.80
2018-11-29T04:59:37.420Z,21.07
2018-11-29T05:02:06.183Z,21.67
2018-11-29T05:04:34.333Z,20.30
2018-11-29T05:07:02.517Z,22.43
2018-11-29T05:09:30.635Z,22.27
2018-11-29T05:11:58.790Z,21.70
2018-11-29T05:14:27.025Z,21.70
2018-11-29T05:16:55.140Z,20.77
2018-11-29T05:19:23.272Z,20.50
2018-11-29T05:21:51.364Z,21.07
2018-11-29T05:24:19.496Z,21.23
2018-11-29T05:26:47.597Z,19.77
2018-11-29T05:29:15.705Z,20.87
2018-11-29T05:31:43.820Z,22.33
2018-11-29T05:34:11.940Z,24.93
2018-11-29T05:36:44.141Z,20.70
2018-11-29T05:39:12.250Z,23.60
2018-11-29T05:41:40.367Z,23.50
2018-11-29T05:44:08.484Z,21.93
2018-11-29T05:46:36.712Z,22.47
2018-11-29T05:49:04.821Z,24.07
2018-11-29T05:51:32.936Z,23.37
2018-11-29T05:54:01.065Z,23.70
2018-11-29T05:56:29.176Z,21.43
2018-11-29T05:58:57.272Z,21.83
2018-11-29T06:01:31.101Z,16.37
2018-11-29T06:03:59.205Z,20.20
2018-11-29T06:06:27.348Z,21.87
2018-11-29T06:08:55.453Z,21.30
2018-11-29T06:11:23.574Z,20.77
2018-11-29T06:13:51.691Z,20.97
2018-11-29T06:16:19.800Z,22.07
2018-11-29T06:18:47.909Z,21.20
2018-11-29T06:21:16.029Z,21.23
2018-11-29T06:23:44.137Z,22.07
2018-11-29T06:26:12.252Z,21.50
2018-11-29T06:28:40.394Z,21.43
2018-11-29T06:31:08.512Z,21.97
2018-11-29T06:33:36.613Z,21.83
2018-11-29T06:36:04.732Z,23.50
2018-11-29T06:38:32.828Z,21.83
2018-11-29T06:41:01.015Z,20.97
2018-11-29T06:43:29.121Z,21.33
2018-11-29T06:45:57.232Z,23.33
2018-11-29T06:48:25.341Z,23.93
2018-11-29T06:50:53.542Z,22.43
2018-11-29T06:53:26.988Z,21.67
2018-11-29T06:55:55.125Z,21.43
2018-11-29T06:58:23.251Z,22.93
2018-11-29T07:00:51.368Z,19.80
2018-11-29T07:03:19.478Z,24.33
2018-11-29T07:05:47.596Z,22.17
2018-11-29T07:08:15.700Z,23.00
2018-11-29T07:10:43.813Z,23.30
2018-11-29T07:13:11.909Z,21.47
2018-11-29T07:15:40.021Z,21.60
2018-11-29T07:18:08.184Z,25.20
2018-11-29T07:20:36.268Z,22.87
2018-11-29T07:23:04.381Z,19.83
2018-11-29T07:25:32.503Z,17.97
2018-11-29T07:28:00.624Z,23.50
2018-11-29T07:30:28.737Z,21.60
2018-11-29T07:32:56.845Z,20.10
2018-11-29T07:35:24.947Z,22.00
2018-11-29T07:37:53.055Z,21.20
2018-11-29T07:40:21.156Z,23.47
2018-11-29T07:42:53.445Z,22.77
2018-11-29T07:45:21.737Z,21.97
2018-11-29T07:47:49.880Z,24.27
2018-11-29T07:50:19.992Z,23.70
2018-11-29T07:52:48.126Z,21.70
2018-11-29T07:55:18.189Z,21.90
2018-11-29T07:57:47.292Z,21.73
2018-11-29T08:00:16.321Z,22.40
2018-11-29T08:02:44.532Z,20.90
2018-11-29T08:05:13.544Z,21.60
2018-11-29T08:07:47.306Z,18.77
2018-11-29T08:10:13.166Z,21.13
2018-11-29T08:12:41.281Z,22.37
2018-11-29T08:15:10.797Z,21.53
2018-11-29T08:17:38.893Z,21.43
2018-11-29T08:20:13.606Z,22.07
2018-11-29T08:22:41.724Z,21.87
2018-11-29T08:25:10.505Z,22.33
2018-11-29T08:27:38.678Z,22.73
2018-11-29T08:30:09.209Z,20.83
2018-11-29T08:32:37.424Z,22.27
2018-11-29T08:35:06.340Z,17.87
2018-11-29T08:37:34.432Z,20.27
2018-11-29T08:40:02.556Z,20.37
2018-11-29T08:42:30.684Z,21.50
2018-11-29T08:44:58.800Z,20.73
2018-11-29T08:47:26.933Z,21.77
2018-11-29T08:49:55.040Z,21.03
2018-11-29T08:52:23.152Z,21.60
2018-11-29T08:54:51.302Z,21.37
2018-11-29T08:57:19.405Z,22.50
2018-11-29T08:59:47.513Z,21.37
2018-11-29T09:02:15.616Z,21.90
2018-11-29T09:04:43.752Z,21.50
2018-11-29T09:07:11.861Z,22.00
2018-11-29T09:09:39.963Z,21.40
2018-11-29T09:12:08.120Z,21.00
2018-11-29T09:14:36.217Z,20.33
2018-11-29T09:17:04.337Z,23.50
2018-11-29T09:19:32.443Z,22.30
2018-11-29T09:22:00.554Z,21.73
2018-11-29T09:24:28.721Z,20.87
2018-11-29T09:26:56.820Z,16.13
2018-11-29T09:29:24.917Z,20.87
2018-11-29T09:31:53.028Z,20.80
2018-11-29T09:34:21.121Z,20.90
2018-11-29T09:36:49.229Z,22.00
2018-11-29T09:39:17.336Z,20.00
2018-11-29T09:41:45.432Z,21.90
2018-11-29T09:44:13.528Z,21.73
2018-11-29T09:46:41.632Z,16.83
2018-11-29T09:49:09.730Z,21.17
2018-11-29T09:51:37.843Z,22.00
2018-11-29T09:54:06.044Z,21.67
2018-11-29T09:56:34.145Z,22.83
2018-11-29T09:59:02.260Z,20.60
2018-11-29T10:01:30.404Z,21.43
2018-11-29T10:03:58.551Z,21.00
2018-11-29T10:06:26.656Z,23.13
2018-11-29T10:08:54.764Z,21.20
2018-11-29T10:11:24.039Z,23.07
2018-11-29T10:13:51.008Z,24.67
2018-11-29T10:16:19.121Z,21.97
2018-11-29T10:18:47.259Z,24.20
2018-11-29T10:21:15.360Z,25.23
2018-11-29T10:23:43.508Z,22.57
2018-11-29T10:26:11.622Z,21.07
2018-11-29T10:28:39.730Z,23.57
2018-11-29T10:31:07.913Z,23.40
2018-11-29T10:33:36.152Z,22.87
2018-11-29T10:36:04.519Z,23.40
2018-11-29T10:38:32.640Z,21.83
2018-11-29T10:41:00.729Z,22.20
2018-11-29T10:43:28.843Z,22.07
2018-11-29T10:45:56.940Z,20.67
2018-11-29T10:48:25.242Z,22.80
2018-11-29T10:50:53.350Z,24.60
2018-11-29T10:53:21.473Z,23.70
2018-11-29T10:55:49.588Z,20.73
2018-11-29T10:58:17.698Z,23.20
2018-11-29T11:00:51.176Z,23.27
2018-11-29T11:03:20.110Z,24.13
2018-11-29T11:05:50.372Z,24.30
2018-11-29T11:08:18.529Z,24.83
2018-11-29T11:10:46.635Z,22.53
2018-11-29T11:13:14.777Z,22.07
2018-11-29T11:15:42.914Z,23.43
2018-11-29T11:18:12.112Z,23.90
2018-11-29T11:20:40.177Z,22.37
2018-11-29T11:23:08.284Z,23.50
2018-11-29T11:25:36.378Z,24.67
2018-11-29T11:28:05.899Z,23.30
2018-11-29T11:30:34.061Z,21.97
2018-11-29T11:33:02.168Z,22.33
2018-11-29T11:35:31.165Z,22.93
2018-11-29T11:37:59.323Z,20.47
2018-11-29T11:40:27.450Z,21.43
2018-11-29T11:42:55.518Z,22.37
2018-11-29T11:45:23.613Z,21.63
2018-11-29T11:47:51.722Z,21.67
2018-11-29T11:50:20.977Z,20.43
2018-11-29T11:52:49.521Z,22.03
2018-11-29T11:55:19.226Z,22.23
2018-11-29T11:57:46.444Z,21.80
2018-11-29T12:00:19.550Z,20.73
2018-11-29T12:02:52.000Z,21.43
2018-11-29T12:05:20.100Z,20.23
2018-11-29T12:07:48.221Z,19.47
2018-11-29T12:10:16.441Z,20.53
2018-11-29T12:12:44.556Z,21.90
2018-11-29T12:15:13.577Z,20.73
2018-11-29T12:17:42.539Z,22.53
2018-11-29T12:20:14.737Z,19.00
2018-11-29T12:22:42.843Z,23.70
2018-11-29T12:25:13.744Z,20.80
2018-11-29T12:27:41.974Z,22.07
2018-11-29T12:30:29.657Z,22.53
2018-11-29T12:33:01.103Z,19.83
2018-11-29T12:35:29.213Z,23.33
2018-11-29T12:37:57.323Z,23.23
2018-11-29T12:40:25.493Z,22.27
2018-11-29T12:42:53.595Z,23.20
2018-11-29T12:45:21.704Z,24.63
2018-11-29T12:47:49.808Z,24.87
2018-11-29T12:50:22.109Z,26.33
2018-11-29T12:52:50.233Z,25.07
2018-11-29T12:55:19.388Z,26.03
2018-11-29T12:57:47.547Z,24.47
2018-11-29T13:00:16.846Z,23.60
2018-11-29T13:03:01.766Z,24.13
2018-11-29T13:05:29.903Z,25.63
2018-11-29T13:07:58.006Z,26.10
2018-11-29T13:10:27.693Z,24.37
2018-11-29T13:12:55.896Z,25.10
2018-11-29T13:15:28.994Z,25.03
2018-11-29T13:17:58.008Z,24.60
2018-11-29T13:20:26.109Z,24.70
2018-11-29T13:22:54.236Z,26.30
2018-11-29T13:25:24.488Z,27.40
2018-11-29T13:27:52.653Z,24.37
2018-11-29T13:30:21.498Z,22.60
2018-11-29T13:32:54.427Z,29.47
2018-11-29T13:35:26.927Z,26.63
2018-11-29T13:37:57.370Z,26.80
2018-11-29T13:40:26.140Z,23.60
2018-11-29T13:42:53.816Z,27.23
2018-11-29T13:45:21.925Z,28.63
2018-11-29T13:47:50.030Z,24.63
2018-11-29T13:50:18.396Z,25.10
2018-11-29T13:52:46.806Z,29.73
2018-11-29T13:55:15.780Z,26.30
2018-11-29T13:57:45.892Z,25.03
2018-11-29T14:00:16.221Z,26.20
2018-11-29T14:02:47.040Z,24.67
2018-11-29T14:05:13.363Z,25.57
2018-11-29T14:07:41.436Z,28.77
2018-11-29T14:10:12.908Z,27.33
2018-11-29T14:12:41.013Z,27.57
2018-11-29T14:15:12.744Z,27.47
2018-11-29T14:17:41.048Z,27.27
2018-11-29T14:20:10.236Z,29.60
2018-11-29T14:22:38.417Z,27.87
2018-11-29T14:25:08.299Z,28.80
2018-11-29T14:27:36.484Z,27.33
2018-11-29T14:30:12.872Z,23.90
2018-11-29T14:32:41.057Z,26.17
2018-11-29T14:35:09.188Z,25.83
2018-11-29T14:37:37.292Z,24.97
2018-11-29T14:40:09.657Z,26.37
2018-11-29T14:42:37.765Z,24.97
2018-11-29T14:45:08.528Z,25.27
2018-11-29T14:47:37.733Z,25.60
2018-11-29T14:50:13.168Z,21.47
2018-11-29T14:52:42.378Z,21.40
2018-11-29T14:55:10.941Z,20.53
2018-11-29T14:57:45.623Z,24.20
2018-11-29T15:00:13.847Z,21.37
2018-11-29T15:02:42.113Z,18.83
2018-11-29T15:05:15.216Z,26.83
2018-11-29T15:07:43.320Z,24.70
2018-11-29T15:10:11.425Z,24.87
2018-11-29T15:12:39.537Z,22.53
2018-11-29T15:15:09.496Z,21.13
2018-11-29T15:17:38.515Z,23.87
2018-11-29T15:20:11.061Z,24.10
2018-11-29T15:22:39.201Z,21.07
2018-11-29T15:25:08.115Z,27.07
2018-11-29T15:27:36.219Z,26.00
2018-11-29T15:30:07.905Z,28.33
2018-11-29T15:32:36.023Z,26.27
2018-11-29T15:35:04.560Z,25.93
2018-11-29T15:37:32.758Z,23.13
2018-11-29T15:40:01.060Z,25.73
2018-11-29T15:42:29.208Z,23.37
2018-11-29T15:44:57.335Z,22.93
2018-11-29T15:47:25.508Z,26.33
2018-11-29T15:49:53.624Z,23.57
2018-11-29T15:52:21.729Z,23.07
2018-11-29T15:54:49.836Z,22.23
2018-11-29T15:57:17.958Z,23.23
2018-11-29T15:59:46.057Z,22.90
2018-11-29T16:02:14.280Z,24.60
2018-11-29T16:04:42.396Z,22.43
2018-11-29T16:07:10.511Z,21.53
2018-11-29T16:09:38.616Z,24.17
2018-11-29T16:12:06.848Z,22.73
2018-11-29T16:14:35.017Z,23.17
2018-11-29T16:17:03.131Z,23.33
2018-11-29T16:19:31.701Z,25.87
2018-11-29T16:21:59.788Z,23.50
2018-11-29T16:24:27.903Z,25.40
2018-11-29T16:26:56.008Z,23.57
2018-11-29T16:29:24.180Z,23.63
2018-11-29T16:31:52.296Z,22.00
2018-11-29T16:34:20.417Z,21.87
2018-11-29T16:36:48.564Z,22.50
2018-11-29T16:39:16.691Z,20.47
2018-11-29T16:41:44.828Z,22.07
2018-11-29T16:44:12.996Z,22.00
2018-11-29T16:46:41.110Z,20.50
2018-11-29T16:49:09.227Z,22.33
2018-11-29T16:51:37.348Z,21.60
2018-11-29T16:54:05.520Z,18.53
2018-11-29T16:56:33.629Z,22.87
2018-11-29T16:59:01.778Z,23.93
2018-11-29T17:01:29.892Z,24.50
2018-11-29T17:03:58.016Z,23.60
2018-11-29T17:06:26.144Z,22.03
2018-11-29T17:08:54.255Z,23.87
2018-11-29T17:11:22.373Z,20.90
2018-11-29T17:13:50.468Z,20.73
2018-11-29T17:16:18.611Z,22.97
2018-11-29T17:18:46.713Z,22.87
2018-11-29T17:21:14.819Z,23.97
2018-11-29T17:23:42.917Z,22.70
2018-11-29T17:26:11.036Z,24.27
2018-11-29T17:28:39.148Z,23.00
2018-11-29T17:31:07.268Z,22.97
2018-11-29T17:33:35.380Z,22.13
2018-11-29T17:36:03.487Z,22.67
2018-11-29T17:38:31.617Z,24.47
2018-11-29T17:40:59.736Z,24.53
2018-11-29T17:43:27.844Z,21.10
2018-11-29T17:45:56.074Z,22.80
2018-11-29T17:48:24.192Z,22.43
2018-11-29T17:50:52.309Z,25.03
2018-11-29T17:53:20.449Z,22.57
2018-11-29T17:55:48.548Z,25.93
2018-11-29T17:58:16.657Z,22.33
2018-11-29T18:00:46.268Z,24.20
2018-11-29T18:03:17.831Z,26.80
2018-11-29T18:05:45.913Z,23.80
2018-11-29T18:08:14.024Z,24.37
2018-11-29T18:10:42.374Z,26.20
2018-11-29T18:13:15.955Z,26.63
2018-11-29T18:15:44.064Z,23.40
2018-11-29T18:18:12.197Z,25.07
2018-11-29T18:20:40.342Z,23.97
2018-11-29T18:23:09.273Z,24.53
2018-11-29T18:25:37.476Z,23.10
2018-11-29T18:28:06.588Z,20.83
2018-11-29T18:30:34.697Z,22.23
2018-11-29T18:33:02.878Z,23.27
2018-11-29T18:35:31.035Z,21.33
2018-11-29T18:37:59.165Z,22.50
2018-11-29T18:40:27.304Z,21.10
2018-11-29T18:42:58.662Z,24.07
2018-11-29T18:45:26.793Z,23.20
2018-11-29T18:47:55.309Z,22.20
2018-11-29T18:50:24.332Z,22.53
2018-11-29T18:52:52.627Z,19.93
2018-11-29T18:55:22.772Z,23.07
2018-11-29T18:57:51.005Z,22.03
2018-11-29T19:00:20.470Z,19.23
2018-11-29T19:02:48.689Z,21.43
2018-11-29T19:05:16.830Z,21.43
2018-11-29T19:07:44.995Z,21.63
2018-11-29T19:10:17.105Z,20.83
2018-11-29T19:13:01.345Z,20.27
2018-11-29T19:15:29.444Z,20.83
2018-11-29T19:17:57.552Z,21.90
2018-11-29T19:20:25.661Z,19.60
2018-11-29T19:22:53.922Z,20.43
2018-11-29T19:25:22.012Z,20.93
2018-11-29T19:27:50.148Z,25.47
2018-11-29T19:30:20.668Z,21.37
2018-11-29T19:32:51.529Z,20.40
2018-11-29T19:35:19.652Z,19.37
2018-11-29T19:37:47.905Z,21.60
2018-11-29T19:40:17.390Z,20.67
2018-11-29T19:42:45.514Z,19.03
2018-11-29T19:45:14.732Z,18.87
2018-11-29T19:47:42.909Z,17.70
2018-11-29T19:50:13.173Z,16.50
2018-11-29T19:52:41.321Z,17.77
2018-11-29T19:55:11.301Z,17.07
2018-11-29T19:57:39.445Z,17.00
2018-11-29T20:00:11.233Z,16.27
2018-11-29T20:02:39.337Z,17.67
2018-11-29T20:05:09.008Z,17.63
2018-11-29T20:07:37.204Z,18.00
2018-11-29T20:10:09.341Z,15.33
2018-11-29T20:12:37.501Z,17.03
2018-11-29T20:15:10.695Z,17.27
2018-11-29T20:17:38.758Z,18.30
2018-11-29T20:20:08.592Z,17.20
2018-11-29T20:22:36.772Z,18.97
2018-11-29T20:25:07.297Z,24.17
2018-11-29T20:27:35.416Z,21.73
2018-11-29T20:30:03.616Z,17.00
2018-11-29T20:32:31.833Z,18.13
2018-11-29T20:34:59.950Z,18.23
2018-11-29T20:37:28.056Z,16.63
2018-11-29T20:39:56.204Z,19.40
2018-11-29T20:42:24.379Z,19.53
2018-11-29T20:44:52.532Z,18.50
2018-11-29T20:47:20.653Z,20.53
2018-11-29T20:49:48.864Z,17.53
2018-11-29T20:52:16.999Z,21.20
2018-11-29T20:54:45.160Z,19.43
2018-11-29T20:57:13.279Z,21.80
2018-11-29T20:59:41.406Z,17.73
2018-11-29T21:02:09.512Z,16.70
2018-11-29T21:04:37.632Z,18.27
2018-11-29T21:07:05.994Z,16.67
2018-11-29T21:09:34.105Z,15.20
2018-11-29T21:12:02.340Z,17.63
2018-11-29T21:14:30.448Z,16.83
2018-11-29T21:16:58.650Z,18.53
2018-11-29T21:19:26.757Z,15.97
2018-11-29T21:21:54.855Z,16.13
2018-11-29T21:24:22.961Z,16.37
2018-11-29T21:26:51.068Z,15.67
2018-11-29T21:29:19.996Z,16.63
2018-11-29T21:31:48.100Z,17.17
2018-11-29T21:34:16.220Z,15.87
2018-11-29T21:36:44.320Z,15.53
2018-11-29T21:39:12.436Z,17.30
2018-11-29T21:41:40.533Z,17.63
2018-11-29T21:44:08.640Z,18.33
2018-11-29T21:46:36.742Z,18.20
2018-11-29T21:49:04.849Z,17.90
2018-11-29T21:51:32.957Z,17.10
2018-11-29T21:54:01.068Z,18.33
2018-11-29T21:56:29.161Z,16.47
2018-11-29T21:58:57.288Z,18.83
2018-11-29T22:01:25.400Z,18.63
2018-11-29T22:03:53.560Z,19.07
2018-11-29T22:06:21.672Z,17.97
2018-11-29T22:08:49.807Z,15.23
2018-11-29T22:11:17.998Z,14.87
2018-11-29T22:13:46.110Z,16.17
2018-11-29T22:16:14.208Z,17.73
2018-11-29T22:18:42.316Z,16.87
2018-11-29T22:21:10.416Z,14.70
2018-11-29T22:23:39.524Z,15.90
2018-11-29T22:26:10.457Z,14.57
2018-11-29T22:28:38.572Z,13.80
2018-11-29T22:31:06.673Z,16.80
2018-11-29T22:33:34.781Z,15.87
2018-11-29T22:36:02.889Z,15.53
2018-11-29T22:38:31.004Z,15.70
2018-11-29T22:40:59.113Z,15.83
2018-11-29T22:43:27.223Z,14.60
2018-11-29T22:45:55.338Z,15.17
2018-11-29T22:48:23.444Z,14.70
2018-11-29T22:50:51.549Z,15.60
2018-11-29T22:53:19.666Z,16.20
2018-11-29T22:55:47.776Z,15.30
2018-11-29T22:58:15.896Z,13.93
2018-11-29T23:00:49.452Z,15.27
2018-11-29T23:03:17.568Z,14.80
2018-11-29T23:05:45.672Z,14.80
2018-11-29T23:08:13.769Z,14.40
2018-11-29T23:10:41.881Z,15.27
2018-11-29T23:13:09.996Z,15.97
2018-11-29T23:15:38.112Z,15.40
2018-11-29T23:18:06.605Z,14.97
2018-11-29T23:20:34.716Z,15.03
2018-11-29T23:23:02.852Z,14.90
2018-11-29T23:25:30.964Z,15.47
2018-11-29T23:27:59.077Z,15.93
2018-11-29T23:30:27.189Z,17.10
2018-11-29T23:32:55.293Z,18.07
2018-11-29T23:35:23.410Z,15.60
2018-11-29T23:37:51.508Z,15.37
2018-11-29T23:40:19.673Z,15.20
2018-11-29T23:42:47.772Z,15.07
2018-11-29T23:45:15.882Z,16.30
2018-11-29T23:47:44.016Z,14.53
2018-11-29T23:50:14.208Z,14.57
2018-11-29T23:52:42.320Z,14.33
2018-11-29T23:55:12.800Z,15.10
2018-11-29T23:57:40.924Z,14.67
